createdAt,value
2022-10-03T00:06:35.604Z,99717.05
2022-10-03T00:17:11.050Z,99709.39
2022-10-03T00:27:53.863Z,99706.13
2022-10-03T00:38:57.207Z,99705.38
2022-10-03T00:49:26.674Z,99701.49
2022-10-03T01:00:15.218Z,99685.38
2022-10-03T01:11:08.337Z,99682.32
2022-10-03T01:21:32.880Z,99671.14
2022-10-03T01:32:49.275Z,99667.39
2022-10-03T01:43:21.280Z,99649.20
2022-10-03T01:53:57.070Z,99652.86
2022-10-03T02:04:25.687Z,99649.15
2022-10-03T02:14:47.164Z,99646.64
2022-10-03T02:26:11.753Z,99639.18
2022-10-03T02:37:07.476Z,99636.07
2022-10-03T02:48:30.197Z,99626.90
2022-10-03T02:59:08.336Z,99623.33
2022-10-03T03:10:36.493Z,99617.52
2022-10-03T03:21:41.302Z,99613.42
2022-10-03T03:32:25.176Z,99611.23
2022-10-03T03:43:20.362Z,99599.59
2022-10-03T03:54:27.619Z,99591.31
2022-10-03T04:05:59.074Z,99581.63
2022-10-03T04:17:15.333Z,99572.89
2022-10-03T04:28:29.458Z,99561.36
2022-10-03T04:39:13.521Z,99549.79
2022-10-03T04:49:59.828Z,99537.65
2022-10-03T05:00:56.212Z,99535.66
2022-10-03T05:12:03.926Z,99526.82
2022-10-03T05:22:54.293Z,99527.57
2022-10-03T05:33:23.333Z,99519.59
2022-10-03T05:44:29.465Z,99517.98
2022-10-03T05:55:20.926Z,99515.64
2022-10-03T06:06:32.407Z,99518.91
2022-10-03T06:17:43.288Z,99518.94
2022-10-03T06:28:02.804Z,99510.38
2022-10-03T06:38:35.040Z,99497.70
2022-10-03T06:49:16.070Z,99495.02
2022-10-03T06:59:43.557Z,99496.80
2022-10-03T07:10:08.582Z,99496.73
2022-10-03T07:21:17.009Z,99496.00
2022-10-03T07:32:09.958Z,99497.34
2022-10-03T07:42:46.999Z,99501.33
2022-10-03T07:53:01.176Z,99499.16
2022-10-03T08:03:28.058Z,99500.08
2022-10-03T08:14:35.470Z,99507.79
2022-10-03T08:25:49.707Z,99505.21
2022-10-03T08:36:59.927Z,99503.20
2022-10-03T08:48:10.692Z,99510.25
2022-10-03T08:59:00.872Z,99501.85
2022-10-03T09:10:21.537Z,99511.23
2022-10-03T09:21:07.162Z,99521.66
2022-10-03T09:31:48.456Z,99531.98
2022-10-03T09:42:34.102Z,99530.34
2022-10-03T09:53:40.163Z,99547.20
2022-10-03T10:04:54.148Z,99558.39
2022-10-03T10:15:46.460Z,99563.91
2022-10-03T10:26:14.040Z,99578.35
2022-10-03T10:37:33.628Z,99593.98
2022-10-03T10:48:19.512Z,99607.24
2022-10-03T10:58:59.292Z,99631.34
2022-10-03T11:09:47.667Z,99649.16
2022-10-03T11:20:38.093Z,99666.89
2022-10-03T11:31:29.846Z,99684.84
2022-10-03T11:42:02.361Z,99719.60
2022-10-03T11:52:55.179Z,99733.84
2022-10-03T12:03:33.098Z,99732.81
2022-10-03T12:14:20.291Z,99736.73
2022-10-03T12:25:07.295Z,99738.59
2022-10-03T12:36:14.516Z,99744.21
2022-10-03T12:47:07.755Z,99768.53
2022-10-03T12:57:47.445Z,99780.88
2022-10-03T13:08:07.964Z,99789.55
2022-10-03T13:18:42.959Z,99801.84
2022-10-03T13:29:20.500Z,99811.59
2022-10-03T13:39:37.033Z,99824.44
2022-10-03T13:50:01.400Z,99836.27
2022-10-03T14:00:23.721Z,99842.21
2022-10-03T14:11:08.105Z,99847.82
2022-10-03T14:21:57.131Z,99857.88
2022-10-03T14:32:47.347Z,99867.69
2022-10-03T14:43:31.852Z,99882.96
2022-10-03T14:54:31.515Z,99893.84
2022-10-03T15:04:42.511Z,99917.45
2022-10-03T15:15:15.948Z,99928.04
2022-10-03T15:25:53.160Z,99942.13
2022-10-03T15:36:32.810Z,99953.60
2022-10-03T15:47:06.828Z,99962.89
2022-10-03T15:57:32.120Z,99969.59
2022-10-03T16:08:25.906Z,99978.41
2022-10-03T16:19:10.964Z,99992.04
2022-10-03T16:29:54.433Z,100004.30
2022-10-03T16:40:40.547Z,100005.84
2022-10-03T16:51:35.954Z,100014.54
2022-10-03T17:02:19.845Z,100017.81
2022-10-03T17:13:07.037Z,100021.00
2022-10-03T17:24:17.464Z,100027.68
2022-10-03T17:35:00.122Z,100029.29
2022-10-03T17:45:48.217Z,100031.58
2022-10-03T17:56:46.059Z,100037.36
2022-10-03T18:07:27.675Z,100050.37
2022-10-03T18:17:54.891Z,100056.12
2022-10-03T18:29:06.263Z,100065.40
2022-10-03T18:51:58.804Z,100073.59
2022-10-03T19:02:22.105Z,100077.48
2022-10-03T19:13:05.540Z,100083.41
2022-10-03T19:23:36.394Z,100090.48
2022-10-03T19:34:01.387Z,100088.63
2022-10-03T19:44:22.318Z,100093.70
2022-10-03T19:55:15.444Z,100087.61
2022-10-03T20:06:11.824Z,100091.35
2022-10-03T20:16:37.365Z,100090.11
2022-10-03T20:27:52.145Z,100089.80
2022-10-03T20:38:59.293Z,100092.38
2022-10-03T20:49:53.361Z,100092.59
2022-10-03T21:01:08.161Z,100089.15
2022-10-03T21:11:19.472Z,100088.58
2022-10-03T21:21:51.762Z,100091.72
2022-10-03T21:33:10.104Z,100089.83
2022-10-03T21:43:30.334Z,100090.55
2022-10-03T21:53:55.312Z,100089.40
2022-10-03T22:04:41.753Z,100085.20
2022-10-03T22:15:55.716Z,100087.43
2022-10-03T22:26:27.247Z,100092.98
2022-10-03T22:36:54.857Z,100089.30
2022-10-03T22:47:24.146Z,100084.85
2022-10-03T22:57:36.083Z,100080.27
2022-10-03T23:08:23.842Z,100077.09
2022-10-03T23:39:38.387Z,100074.47
2022-10-03T23:50:15.151Z,100075.05
